createdAt,value
2023-04-01T00:00:21.697Z,92012.66
2023-04-01T00:05:25.347Z,92024.81
2023-04-01T00:10:27.186Z,92018.69
2023-04-01T00:15:29.059Z,92021.53
2023-04-01T00:20:31.230Z,92034.31
2023-04-01T00:25:33.402Z,92003.69
2023-04-01T00:30:36.927Z,92014.66
2023-04-01T00:35:39.243Z,92004.50
2023-04-01T00:40:43.314Z,92024.38
2023-04-01T00:45:46.628Z,92033.72
2023-04-01T00:50:57.169Z,92036.50
2023-04-01T00:56:08.209Z,92019.06
2023-04-01T01:01:11.585Z,92030.91
2023-04-01T01:06:35.254Z,92022.22
2023-04-01T01:11:51.358Z,92014.47
2023-04-01T01:17:01.942Z,92016.72
2023-04-01T01:22:25.417Z,92035.31
2023-04-01T01:27:27.959Z,92030.75
2023-04-01T01:32:48.416Z,92040.59
2023-04-01T01:37:55.772Z,92046.19
2023-04-01T01:43:03.490Z,92057.09
2023-04-01T01:48:08.550Z,92057.63
2023-04-01T01:53:13.158Z,92035.41
2023-04-01T01:58:20.825Z,92036.56
2023-04-01T02:03:26.264Z,92028.50
2023-04-01T02:08:43.130Z,92032.63
2023-04-01T02:14:11.600Z,92035.66
2023-04-01T02:19:17.069Z,92044.47
2023-04-01T02:24:23.338Z,92028.78
2023-04-01T02:29:26.710Z,92028.38
2023-04-01T02:34:29.031Z,92031.91
2023-04-01T02:39:31.222Z,92006.69
2023-04-01T02:44:33.387Z,92000.69
2023-04-01T02:49:35.122Z,91998.03
2023-04-01T02:54:36.844Z,91987.94
2023-04-01T02:59:38.562Z,91988.63
2023-04-01T03:04:40.343Z,91971.19
2023-04-01T03:09:42.131Z,91967.66
2023-04-01T03:14:43.879Z,91944.66
2023-04-01T03:19:45.720Z,91949.09
2023-04-01T03:24:48.951Z,91974.44
2023-04-01T03:29:50.794Z,91983.38
2023-04-01T03:34:52.516Z,91974.88
2023-04-01T03:39:54.823Z,91982.63
2023-04-01T03:44:56.530Z,91983.03
2023-04-01T03:49:58.282Z,91994.75
2023-04-01T03:55:01.920Z,91984.97
2023-04-01T04:00:04.064Z,91995.91
2023-04-01T04:05:15.593Z,91997.88
2023-04-01T04:10:18.287Z,91984.06
2023-04-01T04:15:20.195Z,91962.13
2023-04-01T04:20:22.061Z,91937.00
2023-04-01T04:25:23.916Z,91936.91
2023-04-01T04:30:25.630Z,91931.31
2023-04-01T04:35:27.335Z,91938.78
2023-04-01T04:40:29.615Z,91949.81
2023-04-01T04:45:32.165Z,91940.63
2023-04-01T04:50:34.462Z,91952.34
2023-04-01T04:55:36.264Z,91971.38
2023-04-01T05:00:54.805Z,91971.59
2023-04-01T05:06:01.803Z,91954.00
2023-04-01T05:11:03.954Z,91967.06
2023-04-01T05:16:14.271Z,91977.41
2023-04-01T05:21:17.000Z,91992.47
2023-04-01T05:26:18.799Z,91993.91
2023-04-01T05:31:20.722Z,92007.66
2023-04-01T05:36:24.654Z,92002.69
2023-04-01T05:41:27.010Z,92005.19
2023-04-01T05:46:29.024Z,92004.72
2023-04-01T05:51:35.749Z,92017.47
2023-04-01T05:56:37.577Z,92003.88
2023-04-01T06:01:39.899Z,92012.56
2023-04-01T06:06:41.678Z,92005.88
2023-04-01T06:11:54.853Z,92010.19
2023-04-01T06:17:30.392Z,91998.50
2023-04-01T06:22:51.393Z,92001.53
2023-04-01T06:28:18.748Z,92026.22
2023-04-01T06:33:29.762Z,92029.66
2023-04-01T06:38:42.313Z,92030.28
2023-04-01T06:43:51.380Z,92029.84
2023-04-01T06:49:44.359Z,92015.75
2023-04-01T06:55:07.680Z,92012.75
2023-04-01T07:00:45.522Z,92018.31
2023-04-01T07:05:47.651Z,92029.28
2023-04-01T07:11:03.787Z,92036.69
2023-04-01T07:16:46.066Z,92041.81
2023-04-01T07:21:49.831Z,92052.34
2023-04-01T07:27:00.140Z,92057.44
2023-04-01T07:32:14.927Z,92063.47
2023-04-01T07:37:31.914Z,92069.06
2023-04-01T07:42:42.898Z,92061.91
2023-04-01T07:48:12.237Z,92051.91
2023-04-01T07:53:23.416Z,92072.41
2023-04-01T07:58:57.358Z,92073.63
2023-04-01T08:04:36.241Z,92066.28
2023-04-01T08:09:56.535Z,92069.56
2023-04-01T08:15:28.159Z,92079.94
2023-04-01T08:20:59.346Z,92078.13
2023-04-01T08:26:18.108Z,92072.44
2023-04-01T08:31:30.393Z,92078.59
2023-04-01T08:36:37.101Z,92087.84
2023-04-01T08:42:06.261Z,92093.63
2023-04-01T08:47:53.815Z,92086.59
2023-04-01T08:53:27.952Z,92083.84
2023-04-01T08:58:57.090Z,92066.91
2023-04-01T09:04:09.138Z,92080.19
2023-04-01T09:09:22.624Z,92074.03
2023-04-01T09:15:04.772Z,92063.53
2023-04-01T09:20:45.624Z,92058.22
2023-04-01T09:25:50.543Z,92055.31
2023-04-01T09:31:20.360Z,92058.56
2023-04-01T09:37:08.792Z,92064.31
2023-04-01T09:42:13.575Z,92070.78
2023-04-01T09:47:23.788Z,92076.31
2023-04-01T09:52:47.347Z,92074.94
2023-04-01T09:58:02.285Z,92054.44
2023-04-01T10:04:04.180Z,92042.78
2023-04-01T10:09:46.583Z,92034.03
2023-04-01T10:15:10.746Z,92038.63
2023-04-01T10:20:35.675Z,92031.06
2023-04-01T10:25:59.166Z,92021.78
2023-04-01T10:31:19.798Z,92013.59
2023-04-01T10:36:52.759Z,91993.75
2023-04-01T10:42:39.239Z,91978.03
2023-04-01T10:48:35.058Z,91962.84
2023-04-01T10:54:18.671Z,91951.75
2023-04-01T10:59:58.990Z,91936.44
2023-04-01T11:05:31.684Z,91944.72
2023-04-01T11:11:05.946Z,91950.44
2023-04-01T11:16:41.441Z,91948.81
2023-04-01T11:22:13.602Z,91968.28
2023-04-01T11:27:31.935Z,91977.03
2023-04-01T11:32:42.339Z,91980.22
2023-04-01T11:38:00.436Z,92006.47
2023-04-01T11:43:33.906Z,91961.25
2023-04-01T11:49:34.410Z,91991.13
2023-04-01T11:55:14.464Z,91992.69
2023-04-01T12:00:42.710Z,92001.16
2023-04-01T12:05:51.542Z,91994.44
2023-04-01T12:11:16.562Z,91986.84
2023-04-01T12:16:24.103Z,91976.91
2023-04-01T12:21:39.381Z,91955.88
2023-04-01T12:27:05.589Z,91962.34
2023-04-01T12:32:07.319Z,91940.81
2023-04-01T12:37:15.766Z,91940.84
2023-04-01T12:42:17.446Z,91930.25
2023-04-01T12:47:31.426Z,91921.84
2023-04-01T12:52:38.977Z,91925.31
2023-04-01T12:58:14.295Z,91919.03
2023-04-01T13:03:25.282Z,91909.16
2023-04-01T13:08:53.535Z,91906.50
2023-04-01T13:14:24.954Z,91890.09
2023-04-01T13:19:57.899Z,91866.31
2023-04-01T13:25:40.407Z,91859.63
2023-04-01T13:30:51.495Z,91853.63
2023-04-01T13:36:17.615Z,91848.31
2023-04-01T13:41:27.312Z,91836.06
2023-04-01T13:46:55.720Z,91832.78
2023-04-01T13:52:19.595Z,91817.28
2023-04-01T13:57:24.350Z,91815.84
2023-04-01T14:02:29.118Z,91797.84
2023-04-01T14:08:05.488Z,91792.78
2023-04-01T14:13:36.536Z,91766.00
2023-04-01T14:19:02.938Z,91785.50
2023-04-01T14:24:04.621Z,91767.41
2023-04-01T14:29:15.459Z,91765.88
2023-04-01T14:34:32.233Z,91744.78
2023-04-01T14:39:41.291Z,91758.25
2023-04-01T14:44:45.735Z,91749.88
2023-04-01T14:49:50.347Z,91723.31
2023-04-01T14:54:53.517Z,91733.69
2023-04-01T15:00:02.315Z,91729.88
2023-04-01T15:05:16.161Z,91759.13
2023-04-01T15:10:27.168Z,91767.94
2023-04-01T15:16:02.771Z,91747.78
2023-04-01T15:21:34.966Z,91764.81
2023-04-01T15:26:59.676Z,91764.50
2023-04-01T15:32:35.872Z,91761.84
2023-04-01T15:37:52.813Z,91755.72
2023-04-01T15:43:26.111Z,91783.16
2023-04-01T15:49:05.021Z,91785.53
2023-04-01T15:54:14.001Z,91793.47
2023-04-01T15:59:27.598Z,91785.28
2023-04-01T16:04:51.926Z,91801.16
2023-04-01T16:10:10.104Z,91801.53
2023-04-01T16:15:28.282Z,91799.47
2023-04-01T16:21:02.370Z,91805.00
2023-04-01T16:26:54.977Z,91809.16
2023-04-01T16:32:16.512Z,91818.53
2023-04-01T16:37:21.934Z,91825.06
2023-04-01T16:42:39.926Z,91828.03
2023-04-01T16:47:50.527Z,91816.75
2023-04-01T16:53:03.538Z,91831.94
2023-04-01T16:58:10.537Z,91809.13
2023-04-01T17:03:45.947Z,91825.78
2023-04-01T17:08:56.356Z,91820.25
2023-04-01T17:14:22.887Z,91792.19
2023-04-01T17:19:47.349Z,91832.22
2023-04-01T17:25:14.694Z,91846.63
2023-04-01T17:30:30.162Z,91847.09
2023-04-01T17:35:53.712Z,91845.19
2023-04-01T17:41:22.961Z,91866.72
2023-04-01T17:46:42.146Z,91871.72
2023-04-01T17:51:46.729Z,91877.53
2023-04-01T17:57:16.580Z,91898.22
2023-04-01T18:02:27.172Z,91901.06
2023-04-01T18:07:58.964Z,91909.84
2023-04-01T18:13:01.134Z,91921.56
2023-04-01T18:18:20.426Z,91925.84
2023-04-01T18:23:42.810Z,91925.75
2023-04-01T18:28:57.312Z,91934.75
2023-04-01T18:34:04.115Z,91920.38
2023-04-01T18:39:13.810Z,91931.78
2023-04-01T18:44:40.576Z,91938.09
2023-04-01T18:50:13.368Z,91928.81
2023-04-01T18:55:15.294Z,91934.91
2023-04-01T19:00:39.647Z,91938.53
2023-04-01T19:05:46.606Z,91947.47
2023-04-01T19:11:00.509Z,91947.09
2023-04-01T19:16:27.383Z,91944.81
2023-04-01T19:21:47.751Z,91945.97
2023-04-01T19:27:02.769Z,91957.75
2023-04-01T19:32:22.740Z,91946.06
2023-04-01T19:37:40.420Z,91955.72
2023-04-01T19:43:00.229Z,91942.75
2023-04-01T19:48:40.813Z,91949.97
2023-04-01T19:54:19.389Z,91954.03
2023-04-01T19:59:40.116Z,91956.19
2023-04-01T20:04:52.993Z,91938.81
2023-04-01T20:10:23.578Z,91948.63
2023-04-01T20:15:35.922Z,91944.91
2023-04-01T20:20:38.964Z,91945.66
2023-04-01T20:26:05.713Z,91942.66
2023-04-01T20:31:07.512Z,91940.19
2023-04-01T20:36:42.863Z,91941.50
2023-04-01T20:41:50.327Z,91950.53
2023-04-01T20:47:30.974Z,91951.72
2023-04-01T20:52:38.320Z,91956.66
2023-04-01T20:57:59.869Z,91953.84
2023-04-01T21:03:13.671Z,91954.16
2023-04-01T21:08:36.415Z,91966.50
2023-04-01T21:14:07.776Z,91963.75
2023-04-01T21:19:12.264Z,91970.19
2023-04-01T21:24:49.049Z,91972.00
2023-04-01T21:30:08.783Z,91969.13
2023-04-01T21:35:28.591Z,91974.63
2023-04-01T21:40:53.874Z,91982.47
2023-04-01T21:46:11.790Z,91978.97
2023-04-01T21:51:31.450Z,91987.91
2023-04-01T21:56:48.190Z,91986.97
2023-04-01T22:02:21.701Z,91983.00
2023-04-01T22:07:30.831Z,91981.97
2023-04-01T22:12:58.402Z,91971.69
2023-04-01T22:18:15.017Z,91974.75
2023-04-01T22:23:41.659Z,91987.06
2023-04-01T22:28:57.210Z,91970.06
2023-04-01T22:34:37.744Z,91981.16
2023-04-01T22:40:08.333Z,91974.22
2023-04-01T22:45:45.155Z,91971.28
2023-04-01T22:51:13.320Z,91962.88
2023-04-01T22:56:26.394Z,91951.66
2023-04-01T23:01:34.271Z,91959.78
2023-04-01T23:06:45.373Z,91962.34
2023-04-01T23:11:54.336Z,91958.28
2023-04-01T23:17:11.368Z,91967.25
2023-04-01T23:22:38.891Z,91970.19
2023-04-01T23:28:06.526Z,91973.47
2023-04-01T23:33:20.645Z,91985.13
2023-04-01T23:38:26.555Z,91976.56
2023-04-01T23:43:32.824Z,91980.50
2023-04-01T23:48:39.064Z,91982.03
2023-04-01T23:53:46.434Z,91992.97
2023-04-01T23:58:56.575Z,91988.88
